Time;durP1;ratioP1;P1;durP2;ratioP2;P2;SDS_P1;SDS_P2;PMS_P1;PMS_P2;Temp;Humidity;BMP_temperature;BMP_pressure;BME280_temperature;BME280_humidity;BME280_pressure;Samples;Min_cycle;Max_cycle;Signal;HPM_P1;HPM_P2
2022/01/29 00:00:04;;;;;;;11.30;3.70;;;;;;;3.25;55.52;101363.34;4965579;28;97478;-88
2022/01/29 00:02:38;;;;;;;11.33;4.63;;;;;;;3.33;55.78;101356.53;4942151;28;98008;-86
2022/01/29 00:05:03;;;;;;;13.90;4.93;;;;;;;3.31;56.32;101353.03;4949677;28;97071;-86
2022/01/29 00:07:29;;;;;;;11.93;3.83;;;;;;;3.36;56.70;101366.09;4935620;28;97021;-86
2022/01/29 00:10:02;;;;;;;12.07;4.50;;;;;;;3.37;56.70;101360.03;4915443;28;99055;-86
2022/01/29 00:12:28;;;;;;;10.63;3.50;;;;;;;3.28;57.39;101340.03;4944873;28;101943;-86
2022/01/29 00:14:53;;;;;;;9.83;3.70;;;;;;;3.22;57.40;101342.56;4922590;28;97200;-86
2022/01/29 00:17:19;;;;;;;13.67;3.67;;;;;;;3.23;58.03;101348.63;4965334;28;97200;-87
2022/01/29 00:19:44;;;;;;;12.93;4.33;;;;;;;3.30;58.40;101356.50;4960425;28;101685;-86
2022/01/29 00:22:10;;;;;;;12.07;3.90;;;;;;;3.22;58.73;101341.69;4939703;28;101871;-87
2022/01/29 00:24:36;;;;;;;14.33;4.97;;;;;;;3.29;58.97;101352.19;4935304;28;96860;-89
2022/01/29 00:27:08;;;;;;;12.73;4.97;;;;;;;3.11;59.29;101339.84;4951392;28;96930;-87
2022/01/29 00:29:37;;;;;;;14.85;4.60;;;;;;;3.20;59.53;101345.97;4939726;28;101590;-88
2022/01/29 00:32:03;;;;;;;16.30;5.13;;;;;;;3.21;60.37;101347.75;4967047;28;101447;-88
2022/01/29 00:34:29;;;;;;;15.20;4.60;;;;;;;3.17;60.29;101345.13;4931878;28;97644;-86
2022/01/29 00:36:54;;;;;;;13.23;4.57;;;;;;;3.27;60.57;101340.91;4934795;28;97198;-86
2022/01/29 00:39:20;;;;;;;12.63;4.63;;;;;;;3.31;60.82;101339.19;4967328;28;97978;-86
2022/01/29 00:41:45;;;;;;;17.40;5.17;;;;;;;3.31;61.19;101347.84;4931120;28;100837;-86
2022/01/29 00:44:11;;;;;;;14.07;4.63;;;;;;;3.21;61.62;101337.38;4936194;28;97122;-86
2022/01/29 00:46:41;;;;;;;12.20;4.40;;;;;;;3.28;61.40;101336.56;4945431;28;96810;-90
2022/01/29 00:49:10;;;;;;;18.17;6.00;;;;;;;3.24;61.50;101321.84;4951246;28;100032;-86
2022/01/29 00:51:35;;;;;;;13.83;4.40;;;;;;;3.30;61.95;101324.50;4966932;28;97815;-91
2022/01/29 00:54:02;;;;;;;16.10;5.33;;;;;;;3.31;62.21;101327.09;4919017;28;96664;-86
2022/01/29 00:56:27;;;;;;;16.67;4.57;;;;;;;3.32;62.86;101323.66;4951010;28;97076;-86
2022/01/29 00:58:53;;;;;;;19.70;4.93;;;;;;;3.33;62.57;101324.53;4946032;28;100118;-86
2022/01/29 01:01:18;;;;;;;16.60;4.90;;;;;;;3.33;62.54;101325.41;4949743;28;97937;-86
2022/01/29 01:03:44;;;;;;;20.50;4.83;;;;;;;3.32;62.93;101309.81;4939289;28;96790;-88
2022/01/29 01:06:10;;;;;;;15.87;4.60;;;;;;;3.35;63.04;101312.44;4919540;28;96814;-86
2022/01/29 01:08:35;;;;;;;20.17;4.90;;;;;;;3.39;63.01;101306.44;4956584;28;99635;-87
2022/01/29 01:11:03;;;;;;;21.73;5.80;;;;;;;3.32;62.99;101295.13;4968726;28;99948;-85
2022/01/29 01:13:30;;;;;;;18.73;4.30;;;;;;;3.40;63.10;101309.06;4979106;28;97422;-87
2022/01/29 01:15:55;;;;;;;16.30;4.40;;;;;;;3.37;63.54;101302.94;4934111;28;96822;-88
2022/01/29 01:18:21;;;;;;;21.77;4.90;;;;;;;3.34;63.23;101302.91;4936664;28;100389;-85
2022/01/29 01:20:46;;;;;;;15.50;4.43;;;;;;;3.38;63.53;101307.28;4938978;28;100003;-89
2022/01/29 01:23:12;;;;;;;16.10;5.10;;;;;;;3.38;63.72;101317.66;4937677;28;97266;-86
2022/01/29 01:25:38;;;;;;;18.17;4.97;;;;;;;3.37;63.61;101314.22;4956362;28;96691;-89
2022/01/29 01:28:03;;;;;;;20.57;5.07;;;;;;;3.34;63.93;101306.34;4950858;28;101782;-88
2022/01/29 01:30:29;;;;;;;18.50;5.10;;;;;;;3.32;63.84;101297.72;4951680;28;97690;-86
2022/01/29 01:32:55;;;;;;;17.63;5.67;;;;;;;3.31;64.00;101290.75;4918259;28;96647;-86
2022/01/29 01:35:29;;;;;;;17.77;4.67;;;;;;;3.39;63.62;101302.09;4918245;28;96722;-86
2022/01/29 01:37:59;;;;;;;22.60;5.27;;;;;;;3.35;64.00;101297.75;4918823;28;101179;-86
2022/01/29 01:40:26;;;;;;;19.37;5.23;;;;;;;3.24;64.15;101272.53;4954962;28;100945;-86
2022/01/29 01:42:58;;;;;;;16.90;4.47;;;;;;;3.32;63.95;101289.06;4940484;28;97164;-86
2022/01/29 01:45:24;;;;;;;15.00;4.53;;;;;;;3.37;64.03;101290.84;4937327;28;96661;-86
2022/01/29 01:47:50;;;;;;;11.33;3.87;;;;;;;2.94;64.61;101267.00;4950327;28;98633;-86
2022/01/29 01:50:16;;;;;;;11.73;3.87;;;;;;;3.01;64.60;101252.38;4950834;28;101362;-86
2022/01/29 01:52:42;;;;;;;18.03;4.87;;;;;;;3.22;64.76;101282.88;4950037;28;96724;-87
2022/01/29 01:55:08;;;;;;;17.73;4.50;;;;;;;3.15;64.99;101271.56;4940679;28;96949;-87
2022/01/29 01:57:34;;;;;;;13.63;4.73;;;;;;;3.20;65.08;101266.44;4958929;28;98030;-86
2022/01/29 02:00:00;;;;;;;15.47;4.50;;;;;;;3.24;64.72;101269.94;4917670;28;99747;-86
2022/01/29 02:02:25;;;;;;;18.33;4.57;;;;;;;3.20;65.14;101265.53;4950282;28;96698;-87
2022/01/29 02:04:51;;;;;;;17.73;4.43;;;;;;;3.24;64.82;101273.38;4950430;28;96819;-86
2022/01/29 02:07:18;;;;;;;11.90;4.00;;;;;;;3.25;65.12;101272.53;4950516;28;100654;-86
2022/01/29 02:09:43;;;;;;;18.13;4.10;;;;;;;3.26;64.94;101270.78;4949763;28;101949;-87
2022/01/29 02:12:10;;;;;;;21.07;5.53;;;;;;;3.27;64.72;101260.44;4932853;28;97298;-86
2022/01/29 02:14:38;;;;;;;14.53;4.73;;;;;;;3.22;65.18;101264.72;4930579;28;97304;-87
2022/01/29 02:17:04;;;;;;;18.67;5.67;;;;;;;3.19;65.09;101238.72;4968449;28;101813;-87
2022/01/29 02:19:30;;;;;;;20.40;5.30;;;;;;;3.11;65.38;101248.16;4946999;28;100290;-87
2022/01/29 02:21:56;;;;;;;19.90;4.83;;;;;;;3.08;65.60;101241.19;4921361;28;97151;-86
2022/01/29 02:24:21;;;;;;;19.00;4.57;;;;;;;3.27;65.04;101259.59;4934941;28;97226;-86
2022/01/29 02:26:47;;;;;;;22.77;4.93;;;;;;;3.22;65.37;101248.28;4933090;28;101195;-87
2022/01/29 02:29:14;;;;;;;25.07;5.63;;;;;;;3.26;65.31;101250.03;4934070;28;100300;-87
2022/01/29 02:31:47;;;;;;;19.23;4.70;;;;;;;3.17;65.78;101246.50;4948683;28;96834;-90
2022/01/29 02:34:12;;;;;;;14.57;4.83;;;;;;;3.21;65.70;101238.75;4933259;28;96813;-87
2022/01/29 02:36:38;;;;;;;18.03;4.37;;;;;;;3.24;65.49;101233.59;4945133;28;101793;-86
2022/01/29 02:39:03;;;;;;;17.87;4.07;;;;;;;3.26;65.14;101229.28;4949901;28;100829;-87
2022/01/29 02:41:29;;;;;;;22.50;5.13;;;;;;;3.18;65.25;101196.34;4949976;28;97284;-86
2022/01/29 02:44:00;;;;;;;21.27;4.70;;;;;;;3.29;65.43;101219.81;4933119;28;97434;-86
2022/01/29 02:46:40;;;;;;;17.90;4.10;;;;;;;3.19;65.73;101220.56;4946994;28;101812;-87
2022/01/29 02:49:06;;;;;;;22.53;5.07;;;;;;;3.24;65.33;101225.81;4941162;28;97783;-86
2022/01/29 02:51:31;;;;;;;22.90;4.83;;;;;;;3.21;65.47;101211.09;4931502;28;96813;-86
2022/01/29 02:53:57;;;;;;;17.60;4.60;;;;;;;3.25;65.81;101224.94;4933089;28;97254;-86
2022/01/29 02:56:23;;;;;;;21.90;5.13;;;;;;;3.17;65.57;101209.28;4932122;28;100488;-87
2022/01/29 02:58:48;;;;;;;22.83;5.53;;;;;;;2.98;65.70;101177.13;4929826;28;101147;-86
2022/01/29 03:01:14;;;;;;;26.67;5.97;;;;;;;3.20;65.43;101204.16;4913078;28;98294;-87
2022/01/29 03:03:40;;;;;;;20.20;4.07;;;;;;;3.22;65.43;101204.16;4918593;28;97535;-86
2022/01/29 03:06:09;;;;;;;18.83;4.50;;;;;;;3.25;65.41;101209.38;4932787;28;100107;-87
2022/01/29 03:08:36;;;;;;;20.43;4.13;;;;;;;3.04;65.75;101184.97;4946160;28;101579;-85
2022/01/29 03:11:01;;;;;;;22.57;4.43;;;;;;;3.09;65.68;101203.19;4957891;28;97937;-86
2022/01/29 03:13:27;;;;;;;17.50;4.40;;;;;;;3.07;65.70;101189.31;4921885;28;97175;-86
2022/01/29 03:15:52;;;;;;;20.53;4.40;;;;;;;3.21;65.54;101202.44;4932612;28;98453;-86
2022/01/29 03:18:18;;;;;;;23.87;5.97;;;;;;;3.16;65.43;101195.44;4949335;28;98331;-86
2022/01/29 03:20:43;;;;;;;23.97;5.13;;;;;;;3.13;65.88;101186.78;4965121;28;96964;-87
2022/01/29 03:23:09;;;;;;;16.57;3.93;;;;;;;3.07;65.96;101174.59;4934306;28;96849;-86
2022/01/29 03:25:34;;;;;;;18.27;4.50;;;;;;;3.03;65.83;101169.41;4952006;28;101530;-87
2022/01/29 03:28:00;;;;;;;19.33;3.93;;;;;;;3.11;65.87;101172.91;4935791;28;98147;-86
2022/01/29 03:30:26;;;;;;;27.27;4.27;;;;;;;3.17;65.68;101172.97;4920464;28;97039;-86
2022/01/29 03:32:51;;;;;;;21.63;4.63;;;;;;;3.21;65.77;101168.69;4951945;28;97034;-86
2022/01/29 03:35:17;;;;;;;17.90;4.60;;;;;;;3.12;65.92;101165.16;4935366;28;101543;-86
2022/01/29 03:37:43;;;;;;;19.83;3.93;;;;;;;3.21;65.58;101166.97;4919731;28;101169;-90
2022/01/29 03:40:08;;;;;;;17.57;4.00;;;;;;;3.09;65.82;101148.69;4935825;28;96740;-86
2022/01/29 03:42:44;;;;;;;22.17;4.37;;;;;;;3.24;65.57;101167.00;4952494;28;97718;-87
2022/01/29 03:45:10;;;;;;;25.03;4.97;;;;;;;3.17;65.76;101153.09;4952207;28;101383;-87
2022/01/29 03:47:36;;;;;;;18.33;3.87;;;;;;;3.15;65.83;101144.44;4965273;28;101647;-86
2022/01/29 03:50:02;;;;;;;19.63;4.70;;;;;;;3.18;65.56;101149.66;4967869;28;97466;-86
2022/01/29 03:52:29;;;;;;;22.07;3.60;;;;;;;3.12;66.01;101138.34;4919135;28;97596;-86
2022/01/29 03:54:54;;;;;;;22.23;4.20;;;;;;;3.18;65.82;101148.78;4935081;28;101269;-86
2022/01/29 03:57:20;;;;;;;17.37;3.67;;;;;;;3.23;65.74;101147.09;4951654;28;101225;-87
2022/01/29 03:59:46;;;;;;;19.03;4.67;;;;;;;3.21;65.50;101146.22;4968295;28;96627;-86
2022/01/29 04:02:11;;;;;;;23.30;5.10;;;;;;;3.15;65.67;101139.25;4935568;28;97100;-87
2022/01/29 04:04:37;;;;;;;24.20;4.60;;;;;;;3.11;65.82;101142.66;4935927;28;100689;-85
2022/01/29 04:07:09;;;;;;;20.27;4.27;;;;;;;3.05;66.01;101133.94;4948542;28;101657;-87
2022/01/29 04:09:35;;;;;;;19.67;4.37;;;;;;;3.09;66.26;101136.59;4949989;28;97000;-87
2022/01/29 04:12:02;;;;;;;22.30;4.93;;;;;;;3.13;66.15;101137.47;4935165;28;97127;-86
2022/01/29 04:14:33;;;;;;;21.67;4.07;;;;;;;3.16;66.14;101130.59;4918597;28;102018;-86
2022/01/29 04:16:59;;;;;;;23.63;5.05;;;;;;;3.20;65.97;101123.72;4964366;28;100020;-86
2022/01/29 04:19:24;;;;;;;28.83;5.27;;;;;;;3.13;66.23;101109.81;4945408;28;96706;-85
2022/01/29 04:21:50;;;;;;;18.13;4.47;;;;;;;3.20;66.01;101105.56;4942566;28;96699;-86
2022/01/29 04:24:15;;;;;;;27.83;4.57;;;;;;;3.11;66.24;101093.38;4921004;28;101279;-86
2022/01/29 04:26:41;;;;;;;27.93;7.20;;;;;;;3.14;66.18;101092.50;4933450;28;100062;-86
2022/01/29 04:29:08;;;;;;;21.30;5.40;;;;;;;3.25;66.62;101098.66;4935705;28;96579;-86
2022/01/29 04:31:47;;;;;;;20.43;4.07;;;;;;;3.26;65.91;101094.34;4919468;28;97357;-87
2022/01/29 04:34:13;;;;;;;24.40;5.27;;;;;;;3.25;65.97;101083.09;4933111;28;100417;-85
2022/01/29 04:36:38;;;;;;;28.67;5.03;;;;;;;3.10;65.89;101067.41;4912308;28;101811;-86
2022/01/29 04:39:04;;;;;;;24.90;5.20;;;;;;;3.22;65.69;101075.28;4937436;28;97432;-86
2022/01/29 04:41:29;;;;;;;17.77;3.80;;;;;;;3.42;65.53;101092.75;4968023;28;96754;-86
2022/01/29 04:43:55;;;;;;;20.97;5.10;;;;;;;3.24;65.76;101051.97;4920401;28;101461;-86
2022/01/29 04:46:21;;;;;;;17.17;4.63;;;;;;;3.42;65.67;101072.84;4918630;28;101769;-87
2022/01/29 04:48:46;;;;;;;22.03;4.63;;;;;;;3.43;65.62;101068.50;4948235;28;96751;-88
2022/01/29 04:51:12;;;;;;;21.73;5.50;;;;;;;3.29;65.18;101053.72;4931022;28;96971;-87
2022/01/29 04:53:40;;;;;;;22.60;6.20;;;;;;;3.44;65.33;101067.69;4914376;28;100922;-86
2022/01/29 04:56:07;;;;;;;16.93;5.37;;;;;;;3.39;65.31;101062.44;4944113;28;97836;-89
2022/01/29 04:58:33;;;;;;;25.23;5.90;;;;;;;3.47;65.38;101062.50;4934864;28;96844;-86
2022/01/29 05:00:59;;;;;;;18.07;5.57;;;;;;;3.48;65.42;101059.91;4931570;28;97679;-87
2022/01/29 05:03:24;;;;;;;21.53;5.07;;;;;;;3.37;65.57;101048.56;4950934;28;97127;-86
2022/01/29 05:05:50;;;;;;;16.73;4.60;;;;;;;3.44;64.98;101059.88;4950743;28;101007;-87
2022/01/29 05:08:17;;;;;;;17.83;4.80;;;;;;;3.10;64.65;100998.22;4950951;28;97264;-87
2022/01/29 05:10:42;;;;;;;19.70;3.93;;;;;;;3.37;65.31;101054.66;4951251;28;97189;-86
2022/01/29 05:13:11;;;;;;;18.77;4.77;;;;;;;3.43;65.28;101047.75;4933368;28;100202;-86
2022/01/29 05:26:57;;;;;;;32.53;13.53;;;;;;;3.35;64.86;101035.59;4921332;28;101772;-86
2022/01/29 05:29:23;;;;;;;39.57;13.67;;;;;;;3.36;64.98;101029.53;4938841;28;97146;-85
2022/01/29 05:31:51;;;;;;;25.43;6.93;;;;;;;3.33;64.84;101018.28;4890775;28;97244;-86
2022/01/29 05:34:20;;;;;;;21.80;5.70;;;;;;;3.39;65.00;101026.09;4919478;28;98188;-85
2022/01/29 05:36:46;;;;;;;33.23;11.03;;;;;;;3.27;64.60;100987.97;4897585;28;98779;-86
2022/01/29 05:39:12;;;;;;;34.17;11.03;;;;;;;3.49;64.49;101004.56;4910539;28;97313;-86
2022/01/29 05:41:38;;;;;;;39.03;13.00;;;;;;;3.42;64.88;100992.38;4897645;28;97196;-86
2022/01/29 05:44:03;;;;;;;39.20;11.60;;;;;;;3.51;64.47;100994.16;4905790;28;101791;-87
2022/01/29 05:46:29;;;;;;;27.93;7.93;;;;;;;3.30;64.79;100985.38;4957459;28;101750;-86
2022/01/29 05:48:55;;;;;;;21.90;5.83;;;;;;;3.47;64.90;101003.66;4922129;28;96727;-85
2022/01/29 05:51:20;;;;;;;30.27;8.30;;;;;;;3.43;64.40;101001.03;4961942;28;97568;-87
2022/01/29 05:53:46;;;;;;;30.97;9.63;;;;;;;3.40;65.21;100997.56;4942802;28;102007;-87
2022/01/29 05:56:12;;;;;;;29.97;8.10;;;;;;;3.51;64.57;100986.38;4939462;28;102001;-88
2022/01/29 05:58:37;;;;;;;27.70;6.90;;;;;;;3.49;64.74;100968.22;4980760;28;96610;-85
2022/01/29 06:01:03;;;;;;;24.13;5.93;;;;;;;3.37;64.29;100943.06;4974065;28;96686;-88
2022/01/29 06:03:29;;;;;;;29.67;5.93;;;;;;;3.50;64.25;100959.56;4937089;28;100034;-86
2022/01/29 06:05:55;;;;;;;21.90;5.13;;;;;;;3.45;64.17;100942.22;4947143;28;101371;-86
2022/01/29 06:08:20;;;;;;;14.97;4.33;;;;;;;3.44;63.82;100932.69;4930874;28;96900;-86
2022/01/29 06:10:47;;;;;;;25.37;6.33;;;;;;;3.49;63.40;100929.28;4899224;28;97090;-86
2022/01/29 06:13:14;;;;;;;22.23;5.97;;;;;;;3.46;63.52;100947.44;4946412;28;101064;-86
2022/01/29 06:15:43;;;;;;;22.77;5.03;;;;;;;3.44;62.61;100933.56;4934374;28;101205;-87
2022/01/29 06:18:15;;;;;;;16.27;4.40;;;;;;;3.45;62.12;100940.47;4934000;28;96821;-85
2022/01/29 06:20:42;;;;;;;18.30;4.80;;;;;;;3.41;62.44;100923.16;4917017;28;97167;-86
2022/01/29 06:23:09;;;;;;;18.97;4.50;;;;;;;3.36;62.53;100914.47;4946112;28;97671;-87
2022/01/29 06:25:35;;;;;;;16.63;3.87;;;;;;;3.49;61.95;100910.22;4914381;28;98483;-87
2022/01/29 06:28:00;;;;;;;17.77;5.27;;;;;;;3.40;62.17;100918.81;4935812;28;96914;-86
2022/01/29 06:30:26;;;;;;;18.63;4.90;;;;;;;3.44;61.65;100919.72;4943751;28;97006;-86
2022/01/29 06:32:52;;;;;;;20.87;4.70;;;;;;;3.40;61.78;100926.59;4942667;28;100942;-90
2022/01/29 06:35:17;;;;;;;21.77;5.10;;;;;;;3.43;61.93;100923.16;4938044;28;101386;-86
2022/01/29 06:37:43;;;;;;;17.70;4.93;;;;;;;3.02;61.79;100866.72;4945044;28;97221;-86
2022/01/29 06:40:09;;;;;;;21.03;5.73;;;;;;;3.21;62.22;100910.09;4949623;28;96999;-87
2022/01/29 06:42:35;;;;;;;21.57;5.67;;;;;;;3.22;62.48;100913.53;4949044;28;101458;-87
2022/01/29 06:45:01;;;;;;;25.40;7.07;;;;;;;3.33;62.20;100907.56;4917512;28;101357;-86
2022/01/29 06:47:27;;;;;;;22.17;6.87;;;;;;;3.24;62.15;100897.13;4963051;28;97484;-86
2022/01/29 06:49:52;;;;;;;21.20;6.37;;;;;;;3.17;62.65;100898.84;4925630;28;97273;-89
2022/01/29 06:52:18;;;;;;;18.57;5.77;;;;;;;3.16;62.71;100886.69;4945058;28;101778;-86
2022/01/29 06:54:43;;;;;;;20.63;6.77;;;;;;;3.30;62.37;100888.50;4949533;28;101711;-87
2022/01/29 06:57:09;;;;;;;20.57;5.93;;;;;;;3.16;62.28;100876.31;4913909;28;96855;-87
2022/01/29 06:59:35;;;;;;;19.03;5.23;;;;;;;3.27;62.32;100885.91;4950327;28;96842;-86
2022/01/29 07:02:00;;;;;;;21.23;4.93;;;;;;;3.08;62.81;100879.72;4920653;28;101406;-86
2022/01/29 07:04:26;;;;;;;19.93;4.93;;;;;;;3.10;62.45;100870.25;4935141;28;101518;-86
2022/01/29 07:06:51;;;;;;;26.57;5.13;;;;;;;3.15;62.65;100877.19;4953857;28;96624;-89
2022/01/29 07:09:17;;;;;;;22.80;5.10;;;;;;;3.21;62.81;100884.16;4936782;28;96990;-87
2022/01/29 07:11:44;;;;;;;22.07;5.60;;;;;;;3.21;62.35;100860.78;4919936;28;101285;-86
2022/01/29 07:14:15;;;;;;;23.50;4.43;;;;;;;3.13;62.19;100859.88;4919719;28;101023;-86
2022/01/29 07:16:43;;;;;;;18.23;4.75;;;;;;;3.12;62.71;100864.22;4965221;28;97315;-86
2022/01/29 07:19:09;;;;;;;35.53;11.23;;;;;;;3.23;62.94;100861.69;4967348;28;97018;-87
2022/01/29 07:21:34;;;;;;;35.70;11.33;;;;;;;3.25;62.09;100852.16;4935759;28;101072;-87
2022/01/29 07:24:00;;;;;;;23.87;5.50;;;;;;;3.22;62.19;100844.34;4941335;28;100138;-87
2022/01/29 07:26:25;;;;;;;27.23;10.40;;;;;;;3.17;62.42;100835.66;4965759;28;96765;-87
2022/01/29 07:28:51;;;;;;;32.40;12.50;;;;;;;3.36;62.71;100857.38;4914857;28;97029;-87
2022/01/29 07:31:17;;;;;;;19.67;6.40;;;;;;;3.41;62.08;100858.28;4966215;28;99785;-87
2022/01/29 07:33:42;;;;;;;24.63;7.10;;;;;;;3.44;61.69;100849.66;4930080;28;101001;-87
2022/01/29 07:36:08;;;;;;;20.27;6.53;;;;;;;3.42;62.27;100853.97;4920769;28;97201;-87
2022/01/29 07:38:33;;;;;;;21.30;5.57;;;;;;;3.55;61.91;100853.13;4934962;28;98033;-87
2022/01/29 07:40:59;;;;;;;21.57;5.93;;;;;;;3.58;61.94;100850.56;4938078;28;100273;-87
2022/01/29 07:43:24;;;;;;;31.00;9.27;;;;;;;3.57;61.74;100854.84;4933638;28;98481;-86
2022/01/29 07:45:50;;;;;;;37.77;12.93;;;;;;;3.69;61.46;100848.84;4920672;28;97101;-86
2022/01/29 07:48:15;;;;;;;36.17;10.67;;;;;;;3.66;61.60;100834.97;4950255;28;96823;-87
2022/01/29 07:50:41;;;;;;;45.33;16.50;;;;;;;3.69;61.98;100843.63;4937198;28;100319;-89
2022/01/29 07:53:07;;;;;;;31.03;10.40;;;;;;;3.73;61.79;100839.34;4948326;28;100451;-89
2022/01/29 07:55:32;;;;;;;23.87;6.53;;;;;;;3.81;61.43;100830.72;4946675;28;97169;-86
2022/01/29 07:57:59;;;;;;;22.87;7.57;;;;;;;3.77;61.62;100831.53;4946733;28;96791;-87
2022/01/29 08:00:25;;;;;;;25.43;8.37;;;;;;;3.85;61.52;100819.44;4964247;28;99325;-90
2022/01/29 08:02:50;;;;;;;17.87;6.27;;;;;;;3.85;61.55;100814.25;4943038;28;98252;-89
2022/01/29 08:05:16;;;;;;;25.80;6.87;;;;;;;3.92;61.42;100832.44;4948102;28;97191;-88
2022/01/29 08:07:41;;;;;;;20.17;6.53;;;;;;;3.91;61.69;100823.78;4947916;28;96888;-89
2022/01/29 08:10:08;;;;;;;28.03;8.43;;;;;;;4.04;61.57;100811.66;4943562;28;100520;-86
2022/01/29 08:12:34;;;;;;;26.90;6.13;;;;;;;4.13;61.14;100816.00;4942005;28;98098;-87
2022/01/29 08:15:00;;;;;;;27.40;6.90;;;;;;;4.07;60.97;100806.47;4959096;28;96752;-88
2022/01/29 08:17:26;;;;;;;26.70;6.60;;;;;;;4.08;61.11;100803.88;4943170;28;96871;-87
2022/01/29 08:19:51;;;;;;;28.27;7.73;;;;;;;4.04;61.44;100798.66;4948396;28;100899;-87
2022/01/29 08:22:17;;;;;;;26.63;6.50;;;;;;;4.06;62.01;100799.53;4924418;28;101558;-88
2022/01/29 08:24:43;;;;;;;22.10;6.27;;;;;;;4.03;62.20;100789.16;4932477;28;96681;-88
2022/01/29 08:27:08;;;;;;;22.33;6.13;;;;;;;4.03;62.39;100789.16;4942434;28;97291;-87
2022/01/29 08:29:34;;;;;;;23.20;5.83;;;;;;;4.04;62.88;100788.28;4952408;28;98014;-88
2022/01/29 08:32:00;;;;;;;20.97;5.83;;;;;;;3.90;62.75;100754.53;4942112;28;98051;-88
2022/01/29 08:34:26;;;;;;;21.80;6.93;;;;;;;4.12;62.98;100781.34;4951739;28;97196;-89
2022/01/29 08:36:52;;;;;;;18.40;5.87;;;;;;;4.22;63.14;100775.28;4967181;28;96981;-88
2022/01/29 08:39:17;;;;;;;35.07;10.43;;;;;;;4.14;62.80;100745.84;4962285;28;100687;-88
2022/01/29 08:41:43;;;;;;;30.97;11.07;;;;;;;4.17;63.03;100753.63;4946105;28;97940;-87
2022/01/29 08:44:09;;;;;;;21.73;8.43;;;;;;;4.31;62.83;100756.22;4915071;28;97310;-88
2022/01/29 08:46:34;;;;;;;14.93;4.50;;;;;;;4.28;62.92;100757.09;4935967;28;97991;-88
2022/01/29 08:49:00;;;;;;;32.53;9.10;;;;;;;4.27;63.26;100744.94;4945564;28;101518;-87
2022/01/29 08:51:25;;;;;;;18.43;5.77;;;;;;;4.23;63.23;100738.03;4932852;28;99671;-88
2022/01/29 08:53:51;;;;;;;27.57;9.87;;;;;;;4.12;64.01;100720.72;4951569;28;97051;-88
2022/01/29 08:56:17;;;;;;;22.33;6.93;;;;;;;4.15;63.97;100720.72;4928134;28;97283;-88
2022/01/29 08:58:43;;;;;;;19.33;5.77;;;;;;;4.17;63.78;100722.47;4963061;28;101329;-88
2022/01/29 09:01:09;;;;;;;23.07;7.50;;;;;;;4.17;64.10;100725.06;4933047;28;100867;-87
2022/01/29 09:03:35;;;;;;;19.80;5.40;;;;;;;4.24;63.77;100716.38;4966069;28;96759;-94
2022/01/29 09:06:02;;;;;;;15.90;5.00;;;;;;;4.03;64.45;100693.88;4941420;28;96786;-88
2022/01/29 09:08:28;;;;;;;19.27;5.17;;;;;;;4.11;64.71;100719.88;4958209;28;100418;-88
2022/01/29 09:10:57;;;;;;;18.70;5.47;;;;;;;4.09;64.29;100714.66;4962067;28;99731;-81
2022/01/29 09:13:24;;;;;;;26.73;7.23;;;;;;;4.12;64.31;100716.38;4953922;28;97364;-84
2022/01/29 09:15:50;;;;;;;17.97;4.67;;;;;;;4.14;64.65;100722.47;4960055;28;96848;-84
2022/01/29 09:18:15;;;;;;;29.83;10.10;;;;;;;4.17;64.39;100717.25;4935304;28;99755;-83
2022/01/29 09:20:41;;;;;;;27.23;8.03;;;;;;;4.22;64.79;100722.47;4935674;28;100588;-85
2022/01/29 09:23:08;;;;;;;23.73;6.93;;;;;;;4.08;64.11;100673.97;4914840;28;97061;-83
2022/01/29 09:25:37;;;;;;;27.70;9.33;;;;;;;4.27;64.24;100708.56;4914189;28;97343;-85
2022/01/29 09:28:04;;;;;;;30.20;8.03;;;;;;;4.39;63.38;100686.00;4947190;28;101225;-84
2022/01/29 09:30:31;;;;;;;32.70;11.17;;;;;;;4.22;63.52;100671.34;4965057;28;101370;-85
2022/01/29 09:32:57;;;;;;;25.40;6.70;;;;;;;4.30;64.10;100681.69;4942515;28;97776;-83
2022/01/29 09:35:22;;;;;;;23.83;7.87;;;;;;;4.35;63.30;100668.72;4913651;28;97225;-84
2022/01/29 09:37:48;;;;;;;25.50;8.20;;;;;;;4.24;63.38;100677.38;4929921;28;101412;-83
2022/01/29 09:40:14;;;;;;;22.47;6.50;;;;;;;4.36;63.50;100673.88;4930022;28;97781;-83
2022/01/29 09:42:40;;;;;;;29.30;8.80;;;;;;;4.29;63.94;100680.84;4947510;28;96934;-82
2022/01/29 09:45:08;;;;;;;20.57;5.67;;;;;;;4.32;63.53;100665.25;4913126;28;97391;-84
2022/01/29 09:47:36;;;;;;;20.53;6.60;;;;;;;4.29;63.24;100669.59;4946273;28;97551;-84
2022/01/29 09:50:02;;;;;;;15.67;5.20;;;;;;;4.32;63.85;100659.19;4939221;28;97529;-88
2022/01/29 09:52:27;;;;;;;15.43;5.50;;;;;;;4.26;63.63;100651.41;4931950;28;96913;-87
2022/01/29 09:54:53;;;;;;;15.40;4.93;;;;;;;4.27;64.46;100650.53;4930617;28;97129;-86
2022/01/29 09:57:19;;;;;;;15.43;5.37;;;;;;;4.27;64.58;100628.00;4947185;28;101441;-86
2022/01/29 09:59:46;;;;;;;14.17;3.33;;;;;;;4.31;64.93;100647.06;4917494;28;99823;-85
2022/01/29 10:02:17;;;;;;;15.90;6.37;;;;;;;4.35;65.12;100640.97;4945544;28;97319;-87
2022/01/29 10:04:51;;;;;;;14.90;5.83;;;;;;;4.20;65.57;100613.31;4940710;28;96879;-86
2022/01/29 10:07:35;;;;;;;18.13;5.27;;;;;;;4.30;65.88;100634.91;4951208;28;103187;-86
2022/01/29 10:10:03;;;;;;;14.83;4.10;;;;;;;4.28;65.76;100628.88;4964021;28;101774;-89
2022/01/29 10:12:30;;;;;;;12.50;4.30;;;;;;;4.23;66.84;100628.03;4931874;28;96928;-93
2022/01/29 10:15:00;;;;;;;12.33;4.27;;;;;;;4.30;66.34;100625.41;4948124;28;96965;-93
2022/01/29 10:17:39;;;;;;;14.57;4.73;;;;;;;4.22;67.38;100613.31;4964552;28;101048;-94
2022/01/29 10:20:20;;;;;;;9.67;3.87;;;;;;;4.24;67.56;100608.97;4947256;28;98331;-94
2022/01/29 10:22:51;;;;;;;12.80;4.83;;;;;;;4.26;67.37;100607.22;4955181;28;97059;-94
2022/01/29 10:25:22;;;;;;;14.23;5.18;;;;;;;4.25;67.91;100598.56;4981251;28;96801;-92
2022/01/29 10:28:11;;;;;;;13.50;4.78;;;;;;;4.18;68.36;100599.44;4940971;28;100241;-93
2022/01/29 10:31:00;;;;;;;15.23;4.10;;;;;;;4.12;68.13;100596.00;4973073;28;99973;-93
2022/01/29 10:33:28;;;;;;;14.10;5.17;;;;;;;4.03;69.05;100589.13;4973489;28;96974;-85
2022/01/29 10:35:57;;;;;;;12.03;4.83;;;;;;;4.07;69.41;100590.81;4938500;28;97139;-85
2022/01/29 10:38:24;;;;;;;15.83;4.73;;;;;;;3.95;69.57;100568.34;4949297;28;100604;-88
2022/01/29 10:41:17;;;;;;;15.27;5.63;;;;;;;4.06;69.80;100578.72;4962489;28;101193;-84
2022/01/29 10:44:16;;;;;;;10.97;4.80;;;;;;;4.05;69.54;100566.59;4920786;28;96953;-89
2022/01/29 10:46:50;;;;;;;14.30;6.50;;;;;;;3.85;70.25;100528.56;4942383;28;96698;-93
2022/01/29 10:49:23;;;;;;;15.30;6.20;;;;;;;4.12;69.99;100563.09;4959229;28;100444;-93
2022/01/29 10:51:56;;;;;;;12.67;5.53;;;;;;;4.17;69.45;100563.09;4971315;28;101062;-93
2022/01/29 10:54:22;;;;;;;11.37;4.30;;;;;;;4.14;69.92;100558.75;4953697;28;96704;-92
2022/01/29 10:57:05;;;;;;;9.90;4.57;;;;;;;4.08;69.93;100544.06;4969782;28;97232;-92
2022/01/29 10:59:55;;;;;;;10.70;5.33;;;;;;;3.99;70.28;100525.06;4921920;28;101532;-93
2022/01/29 11:02:24;;;;;;;12.17;5.10;;;;;;;4.16;70.36;100535.34;4953438;28;101601;-95
2022/01/29 11:04:50;;;;;;;10.07;6.10;;;;;;;3.98;70.88;100515.53;4953479;28;97249;-93
2022/01/29 11:07:19;;;;;;;11.83;5.00;;;;;;;4.04;70.74;100525.88;4953899;28;97084;-95
2022/01/29 11:09:52;;;;;;;32.67;17.60;;;;;;;4.11;71.04;100529.34;4969827;28;98603;-94
2022/01/29 11:12:22;;;;;;;13.47;5.57;;;;;;;4.08;70.94;100512.88;4936534;28;101474;-95
2022/01/29 11:14:52;;;;;;;10.35;4.55;;;;;;;4.08;70.86;100506.84;4936483;28;97799;-95
2022/01/29 11:17:19;;;;;;;9.63;4.30;;;;;;;4.07;71.13;100508.56;4969777;28;97197;-95
2022/01/29 11:19:46;;;;;;;9.03;4.27;;;;;;;3.96;70.76;100478.31;4916473;28;101549;-92
2022/01/29 11:22:12;;;;;;;11.93;5.17;;;;;;;3.87;70.77;100440.25;4941496;28;101495;-92
2022/01/29 11:24:41;;;;;;;11.60;5.53;;;;;;;3.96;70.96;100486.13;4936160;28;97876;-93
2022/01/29 11:27:27;;;;;;;13.90;5.83;;;;;;;3.96;70.87;100473.97;4964817;28;96828;-92
2022/01/29 11:29:59;;;;;;;8.00;5.23;;;;;;;3.88;71.18;100460.16;4946045;28;101895;-89
2022/01/29 11:32:27;;;;;;;10.18;4.60;;;;;;;3.63;71.48;100412.66;4942131;28;101155;-91